createdAt,value
2022-10-10T00:01:14.870Z,98243.34
2022-10-10T00:03:43.028Z,98241.09
2022-10-10T00:06:11.567Z,98241.31
2022-10-10T00:08:39.748Z,98240.28
2022-10-10T00:11:07.491Z,98237.41
2022-10-10T00:13:35.494Z,98228.63
2022-10-10T00:16:03.309Z,98238.84
2022-10-10T00:18:32.057Z,98225.53
2022-10-10T00:20:59.685Z,98226.34
2022-10-10T00:23:27.549Z,98229.44
2022-10-10T00:25:55.272Z,98222.31
2022-10-10T00:28:23.385Z,98217.00
2022-10-10T00:30:51.088Z,98216.75
2022-10-10T00:33:18.808Z,98214.50
2022-10-10T00:35:46.347Z,98217.56
2022-10-10T00:38:14.969Z,98209.81
2022-10-10T00:40:51.992Z,98208.16
2022-10-10T00:43:19.685Z,98211.06
2022-10-10T00:45:48.358Z,98211.22
2022-10-10T00:48:17.989Z,98211.03
2022-10-10T00:51:13.006Z,98201.44
2022-10-10T00:53:42.968Z,98202.88
2022-10-10T00:56:13.510Z,98198.38
2022-10-10T00:58:46.709Z,98201.63
2022-10-10T01:01:14.421Z,98194.47
2022-10-10T01:03:41.968Z,98193.25
2022-10-10T01:06:09.686Z,98194.69
2022-10-10T01:08:37.653Z,98174.66
2022-10-10T01:11:27.785Z,98177.91
2022-10-10T01:14:06.408Z,98177.31
2022-10-10T01:16:44.729Z,98172.38
2022-10-10T01:19:24.751Z,98172.19
2022-10-10T01:22:14.287Z,98178.53
2022-10-10T01:24:52.168Z,98165.25
2022-10-10T01:27:31.185Z,98173.25
2022-10-10T01:30:09.988Z,98169.97
2022-10-10T01:32:47.955Z,98170.59
2022-10-10T01:35:33.728Z,98175.50
2022-10-10T01:38:33.884Z,98171.00
2022-10-10T01:41:13.988Z,98166.72
2022-10-10T01:43:42.688Z,98168.56
2022-10-10T01:46:17.769Z,98175.31
2022-10-10T01:48:50.355Z,98182.03
2022-10-10T01:51:23.789Z,98163.63
2022-10-10T01:54:09.566Z,98174.28
2022-10-10T01:57:11.768Z,98165.91
2022-10-10T01:59:45.484Z,98169.97
2022-10-10T02:02:41.983Z,98171.00
2022-10-10T02:05:15.691Z,98160.78
2022-10-10T02:08:07.223Z,98166.28
2022-10-10T02:10:58.504Z,98161.19
2022-10-10T02:13:33.347Z,98151.00
2022-10-10T02:16:03.468Z,98152.22
2022-10-10T02:18:35.008Z,98149.16
2022-10-10T02:21:04.868Z,98149.16
2022-10-10T02:23:34.167Z,98145.66
2022-10-10T02:26:03.563Z,98139.94
2022-10-10T02:28:40.372Z,98138.72
2022-10-10T02:31:15.110Z,98131.97
2022-10-10T02:33:53.507Z,98122.97
2022-10-10T02:36:24.267Z,98120.53
2022-10-10T02:38:54.135Z,98120.72
2022-10-10T02:41:22.667Z,98123.59
2022-10-10T02:43:51.831Z,98111.72
2022-10-10T02:46:20.227Z,98113.59
2022-10-10T02:48:47.747Z,98108.69
2022-10-10T02:51:16.847Z,98105.25
2022-10-10T02:53:44.443Z,98100.34
2022-10-10T02:56:12.242Z,98087.25
2022-10-10T02:58:39.682Z,98090.53
2022-10-10T03:01:07.425Z,98082.38
2022-10-10T03:03:35.027Z,98080.94
2022-10-10T03:06:03.282Z,98070.31
2022-10-10T03:08:30.826Z,98063.59
2022-10-10T03:11:01.308Z,98059.47
2022-10-10T03:13:28.944Z,98054.16
2022-10-10T03:15:56.728Z,98058.66
2022-10-10T03:18:24.927Z,98049.88
2022-10-10T03:20:55.245Z,98047.63
2022-10-10T03:23:26.206Z,98038.66
2022-10-10T03:25:53.866Z,98035.78
2022-10-10T03:28:22.226Z,98027.22
2022-10-10T03:30:50.094Z,98035.78
2022-10-10T03:33:17.606Z,98032.31
2022-10-10T03:35:45.125Z,98031.50
2022-10-10T03:38:13.866Z,98023.34
2022-10-10T03:40:43.387Z,98022.91
2022-10-10T03:43:12.482Z,98016.00
2022-10-10T03:45:43.805Z,98018.81
2022-10-10T03:48:11.847Z,98001.09
2022-10-10T03:50:39.584Z,97998.19
2022-10-10T03:53:07.287Z,98002.72
2022-10-10T03:55:34.865Z,98009.22
2022-10-10T03:58:02.405Z,97998.16
2022-10-10T04:00:29.944Z,97994.06
2022-10-10T04:02:57.566Z,97999.81
2022-10-10T04:05:25.286Z,97993.09
2022-10-10T04:07:52.844Z,97988.41
2022-10-10T04:10:20.721Z,97982.06
2022-10-10T04:12:48.434Z,97982.25
2022-10-10T04:15:16.221Z,97971.63
2022-10-10T04:17:43.753Z,97976.53
2022-10-10T04:20:11.284Z,97971.63
2022-10-10T04:22:38.907Z,97967.50
2022-10-10T04:25:06.665Z,97966.03
2022-10-10T04:27:34.227Z,97964.22
2022-10-10T04:30:02.304Z,97969.06
2022-10-10T04:32:29.985Z,97975.41
2022-10-10T04:34:57.704Z,97967.00
2022-10-10T04:37:25.243Z,97976.38
2022-10-10T04:39:52.764Z,97969.66
2022-10-10T04:42:20.344Z,97966.28
2022-10-10T04:44:47.884Z,97967.09
2022-10-10T04:47:15.405Z,97963.00
2022-10-10T04:49:42.983Z,97961.44
2022-10-10T04:52:11.026Z,97972.06
2022-10-10T04:54:38.583Z,97965.06
2022-10-10T04:57:06.604Z,97961.81
2022-10-10T04:59:34.204Z,97954.88
2022-10-10T05:02:02.174Z,97957.13
2022-10-10T05:04:29.644Z,97958.34
2022-10-10T05:06:57.169Z,97955.09
2022-10-10T05:09:24.900Z,97959.59
2022-10-10T05:11:53.041Z,97959.75
2022-10-10T05:14:20.621Z,97951.94
2022-10-10T05:16:48.123Z,97953.97
2022-10-10T05:19:15.761Z,97958.63
2022-10-10T05:21:43.323Z,97954.13
2022-10-10T05:24:10.871Z,97944.91
2022-10-10T05:26:42.921Z,97951.59
2022-10-10T05:29:10.885Z,97942.34
2022-10-10T05:31:38.384Z,97944.31
2022-10-10T05:34:06.023Z,97935.38
2022-10-10T05:36:33.627Z,97933.06
2022-10-10T05:39:02.547Z,97937.72
2022-10-10T05:41:30.062Z,97939.88
2022-10-10T05:43:57.564Z,97937.22
2022-10-10T05:46:27.104Z,97928.66
2022-10-10T05:48:54.687Z,97914.91
2022-10-10T05:51:22.225Z,97926.72
2022-10-10T05:53:49.823Z,97918.09
2022-10-10T05:56:17.541Z,97919.53
2022-10-10T05:58:45.546Z,97924.28
2022-10-10T06:01:13.241Z,97917.25
2022-10-10T06:03:40.724Z,97916.44
2022-10-10T06:06:08.984Z,97919.56
2022-10-10T06:08:36.505Z,97910.69
2022-10-10T06:11:08.158Z,97914.38
2022-10-10T06:13:35.843Z,97908.91
2022-10-10T06:16:03.563Z,97914.44
2022-10-10T06:18:31.044Z,97903.56
2022-10-10T06:21:03.603Z,97918.16
2022-10-10T06:23:31.323Z,97908.28
2022-10-10T06:25:59.121Z,97906.66
2022-10-10T06:28:26.754Z,97911.91
2022-10-10T06:30:54.363Z,97908.41
2022-10-10T06:33:21.985Z,97911.81
2022-10-10T06:35:49.923Z,97912.97
2022-10-10T06:38:17.402Z,97916.81
2022-10-10T06:40:45.760Z,97925.50
2022-10-10T06:43:15.503Z,97916.78
2022-10-10T06:45:46.519Z,97908.78
2022-10-10T06:48:15.941Z,97917.69
2022-10-10T06:50:43.564Z,97930.13
2022-10-10T06:53:11.000Z,97927.84
2022-10-10T06:55:38.542Z,97934.81
2022-10-10T06:58:06.103Z,97921.91
2022-10-10T07:00:33.641Z,97935.25
2022-10-10T07:03:01.263Z,97937.81
2022-10-10T07:05:28.943Z,97946.19
2022-10-10T07:07:56.539Z,97939.88
2022-10-10T07:10:24.200Z,97947.69
2022-10-10T07:12:51.969Z,97952.78
2022-10-10T07:15:19.919Z,97946.75
2022-10-10T07:17:53.412Z,97939.28
2022-10-10T07:20:21.924Z,97949.16
2022-10-10T07:22:49.576Z,97952.91
2022-10-10T07:25:17.722Z,97944.19
2022-10-10T07:27:45.279Z,97953.38
2022-10-10T07:30:13.199Z,97946.97
2022-10-10T07:32:40.864Z,97950.81
2022-10-10T07:35:08.723Z,97952.44
2022-10-10T07:37:36.283Z,97959.50
2022-10-10T07:40:04.143Z,97953.59
2022-10-10T07:42:31.785Z,97962.91
2022-10-10T07:44:59.200Z,97963.00
2022-10-10T07:47:26.742Z,97962.66
2022-10-10T07:49:54.244Z,97963.13
2022-10-10T07:52:21.760Z,97972.31
2022-10-10T07:54:49.262Z,97964.19
2022-10-10T07:57:16.802Z,97970.22
2022-10-10T07:59:45.901Z,97974.63
2022-10-10T08:02:13.450Z,97971.59
2022-10-10T08:04:41.101Z,97971.81
2022-10-10T08:07:08.781Z,97965.66
2022-10-10T08:09:36.320Z,97963.41
2022-10-10T08:12:03.962Z,97966.75
2022-10-10T08:14:31.569Z,97967.59
2022-10-10T08:17:00.308Z,97957.13
2022-10-10T08:19:27.982Z,97958.66
2022-10-10T08:21:55.582Z,97957.69
2022-10-10T08:24:23.143Z,97955.56
2022-10-10T08:26:51.401Z,97954.44
2022-10-10T08:29:18.901Z,97957.75
2022-10-10T08:31:46.517Z,97962.91
2022-10-10T08:34:14.022Z,97948.13
2022-10-10T08:36:41.704Z,97956.63
2022-10-10T08:39:11.201Z,97948.16
2022-10-10T08:42:00.562Z,97955.28
2022-10-10T08:44:37.882Z,97951.25
2022-10-10T08:47:17.616Z,97946.72
2022-10-10T08:49:56.742Z,97942.56
2022-10-10T08:52:30.277Z,97951.84
2022-10-10T08:54:59.038Z,97943.66
2022-10-10T08:57:30.580Z,97948.41
2022-10-10T09:00:07.921Z,97943.34
2022-10-10T09:02:56.225Z,97947.88
2022-10-10T09:05:41.039Z,97951.94
2022-10-10T09:08:08.643Z,97944.16
2022-10-10T09:10:36.101Z,97949.91
2022-10-10T09:13:15.460Z,97950.22
2022-10-10T09:15:57.200Z,97938.97
2022-10-10T09:18:36.597Z,97938.59
2022-10-10T09:21:09.057Z,97925.41
2022-10-10T09:24:10.862Z,97927.63
2022-10-10T09:26:44.343Z,97938.63
2022-10-10T09:29:24.017Z,97922.41
2022-10-10T09:31:58.886Z,97931.09
2022-10-10T09:34:29.461Z,97926.22
2022-10-10T09:37:00.563Z,97929.06
2022-10-10T09:39:44.418Z,97927.97
2022-10-10T09:42:15.157Z,97926.31
2022-10-10T09:44:43.981Z,97927.13
2022-10-10T09:47:17.001Z,97929.34
2022-10-10T09:49:45.181Z,97932.38
2022-10-10T09:52:28.861Z,97937.56
2022-10-10T09:55:01.109Z,97934.94
2022-10-10T09:57:39.360Z,97938.56
2022-10-10T10:00:19.021Z,97940.66
2022-10-10T10:03:05.958Z,97936.59
2022-10-10T10:05:33.862Z,97942.56
2022-10-10T10:08:01.380Z,97939.59
2022-10-10T10:10:30.514Z,97936.09
2022-10-10T10:12:58.285Z,97940.75
2022-10-10T10:15:32.048Z,97948.56
2022-10-10T10:18:19.600Z,97941.81
2022-10-10T10:20:50.616Z,97944.44
2022-10-10T10:23:36.445Z,97945.06
2022-10-10T10:26:06.721Z,97946.00
2022-10-10T10:28:44.080Z,97944.00
2022-10-10T10:31:31.027Z,97939.97
2022-10-10T10:34:13.481Z,97942.44
2022-10-10T10:36:59.139Z,97939.69
2022-10-10T10:39:55.961Z,97935.56
2022-10-10T10:42:37.999Z,97936.41
2022-10-10T10:45:28.720Z,97933.31
2022-10-10T10:48:36.200Z,97931.44
2022-10-10T10:51:31.880Z,97912.69
2022-10-10T10:54:15.256Z,97921.25
2022-10-10T10:57:06.578Z,97912.06
2022-10-10T11:00:21.098Z,97911.88
2022-10-10T11:03:05.871Z,97905.22
2022-10-10T11:06:11.026Z,97904.16
2022-10-10T11:08:54.426Z,97900.13
2022-10-10T11:11:30.615Z,97898.53
2022-10-10T11:18:59.658Z,97896.91
2022-10-10T11:21:29.669Z,97883.38
2022-10-10T11:24:15.055Z,97881.56
2022-10-10T11:26:52.869Z,97883.19
2022-10-10T11:29:23.829Z,97881.53
2022-10-10T11:31:55.658Z,97874.53
2022-10-10T11:34:36.079Z,97882.59
2022-10-10T11:37:11.584Z,97870.75
2022-10-10T11:39:45.947Z,97873.41
2022-10-10T11:42:27.018Z,97878.25
2022-10-10T11:45:13.228Z,97867.47
2022-10-10T11:47:43.611Z,97875.63
2022-10-10T11:50:21.687Z,97863.50
2022-10-10T11:52:56.047Z,97865.94
2022-10-10T11:55:42.188Z,97873.41
2022-10-10T11:58:09.659Z,97867.53
2022-10-10T12:00:43.370Z,97864.56
2022-10-10T12:03:11.076Z,97867.78
2022-10-10T12:05:47.321Z,97868.03
2022-10-10T12:08:22.318Z,97873.16
2022-10-10T12:10:52.478Z,97865.91
2022-10-10T12:13:40.550Z,97867.50
2022-10-10T12:16:15.038Z,97867.50
2022-10-10T12:18:54.960Z,97866.94
2022-10-10T12:21:26.014Z,97862.63
2022-10-10T12:24:01.356Z,97861.56
2022-10-10T12:26:57.697Z,97861.06
2022-10-10T12:29:50.695Z,97857.28
2022-10-10T12:32:18.656Z,97853.22
2022-10-10T12:34:49.056Z,97855.91
2022-10-10T12:37:27.066Z,97852.41
2022-10-10T12:40:07.030Z,97855.81
2022-10-10T12:42:39.284Z,97860.16
2022-10-10T12:45:31.690Z,97849.88
2022-10-10T12:48:05.365Z,97848.50
2022-10-10T12:50:39.957Z,97852.84
2022-10-10T12:53:13.278Z,97845.84
2022-10-10T12:55:43.076Z,97855.53
2022-10-10T12:58:27.457Z,97846.81
2022-10-10T13:00:58.708Z,97845.59
2022-10-10T13:03:42.866Z,97854.69
2022-10-10T13:06:39.493Z,97844.41
2022-10-10T13:09:32.400Z,97836.88
2022-10-10T13:12:05.717Z,97853.28
2022-10-10T13:14:44.817Z,97846.72
2022-10-10T13:17:20.409Z,97857.44
2022-10-10T13:19:47.933Z,97859.31
2022-10-10T13:22:16.984Z,97864.72
2022-10-10T13:24:45.815Z,97860.13
2022-10-10T13:27:21.498Z,97862.59
2022-10-10T13:29:49.348Z,97865.50
2022-10-10T13:32:37.647Z,97857.94
2022-10-10T13:35:13.340Z,97852.56
2022-10-10T13:37:42.372Z,97861.38
2022-10-10T13:40:17.336Z,97858.16
2022-10-10T13:42:47.892Z,97863.78
2022-10-10T13:45:32.889Z,97850.66
2022-10-10T13:48:03.296Z,97857.13
2022-10-10T13:50:34.575Z,97848.22
2022-10-10T13:53:26.847Z,97854.69
2022-10-10T13:56:22.697Z,97859.50
2022-10-10T13:59:13.360Z,97855.72
2022-10-10T14:01:43.989Z,97858.22
2022-10-10T14:04:16.832Z,97849.34
2022-10-10T14:06:52.905Z,97846.63
2022-10-10T14:09:26.562Z,97841.31
2022-10-10T14:11:55.825Z,97842.16
2022-10-10T14:14:44.862Z,97843.13
2022-10-10T14:17:12.937Z,97851.56
2022-10-10T14:19:41.045Z,97845.66
2022-10-10T14:22:08.696Z,97848.63
2022-10-10T14:24:36.435Z,97833.31
2022-10-10T14:27:26.734Z,97840.25
2022-10-10T14:29:57.091Z,97841.31
2022-10-10T14:32:25.214Z,97841.25
2022-10-10T14:34:52.837Z,97839.97
2022-10-10T14:37:27.126Z,97834.22
2022-10-10T14:39:55.935Z,97838.25
2022-10-10T14:42:24.975Z,97840.63
2022-10-10T14:44:52.788Z,97836.53
2022-10-10T14:47:24.300Z,97830.63
2022-10-10T14:49:57.271Z,97832.47
2022-10-10T14:52:24.798Z,97823.34
2022-10-10T14:54:52.145Z,97819.25
2022-10-10T14:57:20.021Z,97830.31
2022-10-10T14:59:50.083Z,97831.16
2022-10-10T15:02:22.179Z,97829.22
2022-10-10T15:04:50.448Z,97817.91
2022-10-10T15:07:18.476Z,97825.06
2022-10-10T15:10:11.205Z,97827.13
2022-10-10T15:12:37.811Z,97831.34
2022-10-10T15:15:06.680Z,97831.63
2022-10-10T15:17:34.617Z,97832.88
2022-10-10T15:20:04.926Z,97838.00
2022-10-10T15:22:32.745Z,97842.31
2022-10-10T15:25:00.324Z,97835.25
2022-10-10T15:27:32.765Z,97835.06
2022-10-10T15:30:00.885Z,97832.66
2022-10-10T15:32:28.615Z,97831.28
2022-10-10T15:34:56.376Z,97831.81
2022-10-10T15:37:25.955Z,97838.44
2022-10-10T15:39:53.485Z,97839.00
2022-10-10T15:42:22.966Z,97841.06
2022-10-10T15:44:51.452Z,97845.06
2022-10-10T15:47:19.944Z,97838.28
2022-10-10T15:49:47.880Z,97843.66
2022-10-10T15:52:16.264Z,97845.72
2022-10-10T15:54:43.745Z,97848.25
2022-10-10T15:57:14.117Z,97854.63
2022-10-10T15:59:44.390Z,97862.13
2022-10-10T16:02:13.060Z,97857.50
2022-10-10T16:04:40.552Z,97862.19
2022-10-10T16:09:55.695Z,97861.38
2022-10-10T16:12:23.244Z,97858.59
2022-10-10T16:14:50.794Z,97865.56
2022-10-10T16:17:22.330Z,97866.44
2022-10-10T16:19:51.464Z,97872.88
2022-10-10T16:22:19.464Z,97871.72
2022-10-10T16:24:54.047Z,97878.66
2022-10-10T16:27:32.376Z,97877.78
2022-10-10T16:29:59.760Z,97881.53
2022-10-10T16:32:27.301Z,97883.88
2022-10-10T16:34:55.005Z,97881.13
2022-10-10T16:37:22.447Z,97888.38
2022-10-10T16:39:49.979Z,97885.03
2022-10-10T16:42:17.417Z,97890.72
2022-10-10T16:44:44.947Z,97895.03
2022-10-10T16:47:12.395Z,97897.41
2022-10-10T16:49:40.495Z,97898.50
2022-10-10T16:52:07.887Z,97905.19
2022-10-10T16:54:35.386Z,97902.19
2022-10-10T16:57:02.776Z,97906.16
2022-10-10T16:59:30.245Z,97904.47
2022-10-10T17:01:57.668Z,97917.28
2022-10-10T17:04:25.187Z,97922.28
2022-10-10T17:06:52.933Z,97935.91
2022-10-10T17:09:20.353Z,97924.38
2022-10-10T17:11:51.190Z,97935.19
2022-10-10T17:14:19.456Z,97923.88
2022-10-10T17:17:11.037Z,97922.38
2022-10-10T17:19:34.424Z,97915.72
2022-10-10T17:22:01.918Z,97923.78
2022-10-10T17:24:29.403Z,97916.22
2022-10-10T17:26:56.806Z,97910.63
2022-10-10T17:29:24.868Z,97912.16
2022-10-10T17:31:52.333Z,97911.03
2022-10-10T17:34:19.959Z,97909.09
2022-10-10T17:36:47.526Z,97919.31
2022-10-10T17:39:15.102Z,97922.38
2022-10-10T17:41:42.675Z,97924.56
2022-10-10T17:44:10.919Z,97924.31
2022-10-10T17:46:38.786Z,97924.56
2022-10-10T17:49:09.017Z,97920.75
2022-10-10T17:51:38.517Z,97923.03
2022-10-10T17:54:06.701Z,97925.50
2022-10-10T17:56:34.718Z,97917.78
2022-10-10T17:59:05.627Z,97918.59
2022-10-10T18:01:35.066Z,97921.47
2022-10-10T18:04:02.833Z,97911.84
2022-10-10T18:06:33.107Z,97909.91
2022-10-10T18:09:01.056Z,97914.66
2022-10-10T18:11:30.830Z,97914.78
2022-10-10T18:14:00.811Z,97923.81
2022-10-10T18:16:34.063Z,97928.63
2022-10-10T18:19:03.705Z,97926.16
2022-10-10T18:21:31.326Z,97925.59
2022-10-10T18:23:59.010Z,97928.03
2022-10-10T18:26:32.283Z,97935.25
2022-10-10T18:28:59.776Z,97935.97
2022-10-10T18:31:33.303Z,97933.06
2022-10-10T18:34:02.606Z,97934.09
2022-10-10T18:36:32.735Z,97932.25
2022-10-10T18:39:02.483Z,97938.47
2022-10-10T18:41:34.601Z,97933.97
2022-10-10T18:44:07.699Z,97924.56
2022-10-10T18:46:35.367Z,97934.94
2022-10-10T18:49:04.946Z,97935.72
2022-10-10T18:51:32.641Z,97946.44
2022-10-10T18:54:04.342Z,97945.84
2022-10-10T18:56:36.682Z,97956.19
2022-10-10T18:59:06.567Z,97958.13
2022-10-10T19:01:36.903Z,97958.94
2022-10-10T19:04:06.636Z,97957.16
2022-10-10T19:06:35.070Z,97959.63
2022-10-10T19:09:03.927Z,97969.84
2022-10-10T19:11:36.731Z,97966.34
2022-10-10T19:14:06.516Z,97967.06
2022-10-10T19:16:34.287Z,97973.94
2022-10-10T19:19:02.587Z,97964.63
2022-10-10T19:21:32.198Z,97965.91
2022-10-10T19:24:01.920Z,97965.66
2022-10-10T19:26:33.539Z,97970.31
2022-10-10T19:29:06.587Z,97963.00
2022-10-10T19:31:36.788Z,97966.16
2022-10-10T19:34:04.942Z,97971.59
2022-10-10T19:36:33.351Z,97965.28
2022-10-10T19:39:02.071Z,97969.38
2022-10-10T19:41:29.937Z,97972.84
2022-10-10T19:43:58.753Z,97980.22
2022-10-10T19:46:27.647Z,97977.16
2022-10-10T19:48:58.102Z,97979.03
2022-10-10T19:51:27.417Z,97984.16
2022-10-10T19:53:55.709Z,97985.19
2022-10-10T19:56:24.807Z,97986.59
2022-10-10T19:58:54.566Z,97984.97
2022-10-10T20:01:28.190Z,97982.88
2022-10-10T20:03:57.173Z,97988.78
2022-10-10T20:06:25.166Z,97992.75
2022-10-10T20:08:52.617Z,97985.19
2022-10-10T20:11:20.487Z,97987.06
2022-10-10T20:13:51.975Z,97984.97
2022-10-10T20:16:20.236Z,97993.59
2022-10-10T20:18:47.746Z,97992.19
2022-10-10T20:21:24.485Z,97992.41
2022-10-10T20:23:52.056Z,98002.63
2022-10-10T20:26:21.786Z,98001.38
2022-10-10T20:28:50.864Z,98001.63
2022-10-10T20:31:23.885Z,98008.84
2022-10-10T20:33:53.335Z,98010.94
2022-10-10T20:36:22.155Z,98018.50
2022-10-10T20:39:05.158Z,98017.22
2022-10-10T20:41:34.738Z,98014.53
2022-10-10T20:44:04.916Z,98016.97
2022-10-10T20:46:35.445Z,98016.97
2022-10-10T20:49:05.759Z,98026.03
2022-10-10T20:51:33.479Z,98030.13
2022-10-10T20:54:03.842Z,98035.13
2022-10-10T20:56:32.784Z,98032.44
2022-10-10T20:59:00.738Z,98041.97
2022-10-10T21:01:29.992Z,98043.50
2022-10-10T21:03:58.835Z,98038.03
2022-10-10T21:06:29.567Z,98046.06
2022-10-10T21:09:00.797Z,98044.44
2022-10-10T21:11:28.573Z,98040.38
2022-10-10T21:13:58.018Z,98045.97
2022-10-10T21:16:28.855Z,98052.47
2022-10-10T21:18:58.566Z,98056.66
2022-10-10T21:21:29.667Z,98062.56
2022-10-10T21:23:57.248Z,98055.84
2022-10-10T21:26:26.732Z,98066.78
2022-10-10T21:28:54.757Z,98063.84
2022-10-10T21:31:26.023Z,98056.28
2022-10-10T21:33:54.242Z,98055.94
2022-10-10T21:36:23.226Z,98065.13
2022-10-10T21:38:50.787Z,98066.31
2022-10-10T21:41:20.149Z,98065.16
2022-10-10T21:43:51.560Z,98070.97
2022-10-10T21:46:35.650Z,98066.56
2022-10-10T21:49:07.979Z,98069.56
2022-10-10T21:51:40.981Z,98072.81
2022-10-10T21:54:09.035Z,98075.72
2022-10-10T21:56:36.623Z,98084.22
2022-10-10T21:59:04.892Z,98083.75
2022-10-10T22:01:37.662Z,98084.69
2022-10-10T22:04:06.575Z,98092.25
2022-10-10T22:06:34.341Z,98093.84
2022-10-10T22:09:02.977Z,98096.19
2022-10-10T22:11:33.262Z,98098.28
2022-10-10T22:14:02.665Z,98096.44
2022-10-10T22:16:32.388Z,98091.91
2022-10-10T22:19:00.436Z,98091.09
2022-10-10T22:21:31.823Z,98085.75
2022-10-10T22:24:02.126Z,98094.44
2022-10-10T22:26:30.465Z,98092.03
2022-10-10T22:28:58.346Z,98095.50
2022-10-10T22:31:26.229Z,98084.34
2022-10-10T22:33:53.637Z,98085.22
2022-10-10T22:36:21.266Z,98095.91
2022-10-10T22:38:48.705Z,98089.88
2022-10-10T22:41:16.218Z,98092.09
2022-10-10T22:43:43.825Z,98094.78
2022-10-10T22:46:11.344Z,98104.66
2022-10-10T22:48:39.305Z,98102.59
2022-10-10T22:51:10.707Z,98118.03
2022-10-10T22:53:42.500Z,98115.56
2022-10-10T22:56:11.939Z,98123.38
2022-10-10T22:58:39.386Z,98121.03
2022-10-10T23:01:10.153Z,98126.25
2022-10-10T23:03:37.828Z,98122.63
2022-10-10T23:06:05.701Z,98129.47
2022-10-10T23:08:34.036Z,98131.69
2022-10-10T23:11:01.765Z,98136.91
2022-10-10T23:13:30.090Z,98137.56
2022-10-10T23:15:57.676Z,98139.88
2022-10-10T23:18:25.216Z,98140.22
2022-10-10T23:20:52.625Z,98140.91
2022-10-10T23:23:20.223Z,98147.28
2022-10-10T23:25:48.374Z,98149.38
2022-10-10T23:28:17.288Z,98157.38
2022-10-10T23:30:46.883Z,98148.78
2022-10-10T23:33:16.255Z,98159.34
2022-10-10T23:35:43.856Z,98166.16
2022-10-10T23:38:11.453Z,98173.25
2022-10-10T23:40:38.934Z,98183.53
2022-10-10T23:43:07.615Z,98175.16
2022-10-10T23:45:35.036Z,98184.88
2022-10-10T23:48:02.493Z,98187.53
2022-10-10T23:50:30.126Z,98191.25
2022-10-10T23:52:57.696Z,98196.81
2022-10-10T23:55:25.308Z,98203.44
2022-10-10T23:57:52.807Z,98202.38
